Home > Products > Valid Products > TAF

000
FTUS43 KILX 290522
TAFBMI
TAF
KBMI 290522Z 2906/3006 17007KT P6SM SCT080 BKN250
     FM291400 18008KT P6SM VCTS SCT035 BKN050CB
     FM291800 19012KT P6SM BKN035
     FM292300 21015KT P6SM VCTS BKN040CB
     FM300300 22010KT 6SM -SHRA VCTS OVC035CB=



000
FTUS43 KILX 290522
TAFPIA
TAF
KPIA 290522Z 2906/3006 18005KT P6SM SCT080 BKN250
     FM291200 18008KT P6SM VCTS SCT035 BKN060CB
     FM291700 19010KT P6SM BKN035
     FM292200 22012KT P6SM VCTS BKN045CB
     FM300200 21006KT P6SM -SHRA VCTS OVC035CB=



000
FTUS43 KILX 290522
TAFCMI
TAF
KCMI 290522Z 2906/3006 16008KT P6SM SCT080 BKN250
     FM291500 18012KT P6SM VCTS SCT035 BKN050CB
     FM291900 19012G17KT P6SM BKN035
     FM300000 20010KT P6SM VCTS BKN045CB
     FM300300 20008KT 6SM -SHRA VCTS OVC040CB=



000
FTUS43 KILX 290522
TAFDEC
TAF
KDEC 290522Z 2906/3006 16008KT P6SM SCT080 BKN250
     FM291300 18008KT P6SM VCTS BKN035CB
     FM291800 21012G17KT P6SM BKN045
     FM292300 21010KT P6SM VCTS BKN050CB
     FM300300 20007KT 6SM -SHRA VCTS OVC045CB=



000
FTUS43 KILX 290522
TAFSPI
TAF
KSPI 290522Z 2906/3006 16008KT P6SM SCT080 BKN250
     FM291200 18008KT P6SM VCTS BKN035CB
     FM291700 21012KT P6SM BKN045
     FM292200 21010KT P6SM VCTS BKN050CB
     FM300200 20007KT 6SM -SHRA VCTS OVC045CB=



000
FTUS43 KILX 290144 AAA
TAFBMI
TAF AMD
KBMI 290144Z 2902/2924 18006KT P6SM BKN250
     FM290600 17008KT P6SM BKN080
     FM291000 18008KT P6SM VCSH SCT035 BKN050
     FM291500 19012KT P6SM BKN035
     FM292100 21015KT P6SM VCTS BKN040CB=



000
FTUS43 KILX 290143 AAA
TAFPIA
TAF AMD
KPIA 290143Z 2902/2924 18005KT P6SM BKN080
     FM290800 18008KT P6SM VCTS SCT035 BKN050CB
     FM291500 19010KT P6SM VCSH BKN035
     FM292100 22012KT P6SM VCTS BKN045CB=



000
FTUS43 KILX 282357 AAA
TAFSPI
TAF AMD
KSPI 282357Z 2900/2924 15006KT P6SM VCTS BKN050CB
     FM290200 16008KT P6SM BKN050
     FM290600 18008KT P6SM VCTS SCT035 BKN050CB
     FM291500 19010KT P6SM BKN035
     FM292100 21010KT P6SM VCTS BKN050CB=



000
FTUS43 KILX 282357 AAA
TAFSPI
TAF AMD
KSPI 282357Z 2900/2924 15006KT P6SM VCTS BKN050CB
     FM290200 16008KT P6SM BKN050
     FM290600 18008KT P6SM VCTS SCT035 BKN050CB
     FM291500 19010KT P6SM BKN035
     FM292100 21010KT P6SM VCTS BKN050CB=



000
FTUS43 KILX 282330
TAFBMI
TAF
KBMI 282330Z 2900/2924 17012KT P6SM BKN250
     FM290600 17008KT P6SM BKN080
     FM291000 18008KT P6SM VCSH SCT035 BKN050
     FM291500 19012KT P6SM BKN035
     FM292100 21015KT P6SM VCTS BKN040CB=



000
FTUS43 KILX 282330
TAFDEC
TAF
KDEC 282330Z 2900/2924 15008KT P6SM VCTS BKN050CB
     FM290200 16008KT P6SM BKN050
     FM290700 18008KT P6SM VCTS SCT035 BKN050CB
     FM291500 19010KT P6SM BKN035
     FM292200 21010KT P6SM VCTS BKN050CB=



000
FTUS43 KILX 282330
TAFSPI
TAF
KSPI 282330Z 2900/2924 15008KT P6SM VCTS BKN050CB
      TEMPO 2900/2901 VRB15G30KT 2SM +TSRA BKN035CB
     FM290200 16008KT P6SM BKN050
     FM290600 18008KT P6SM VCTS SCT035 BKN050CB
     FM291500 19010KT P6SM BKN035
     FM292100 21010KT P6SM VCTS BKN050CB=



000
FTUS43 KILX 282330
TAFCMI
TAF
KCMI 282330Z 2900/2924 17010KT P6SM SCT050 BKN250
     FM290600 16008KT P6SM BKN080
     FM291100 18008KT P6SM VCSH SCT035 BKN050
     FM291500 19012KT P6SM BKN035
     FM292300 21012KT P6SM VCTS BKN045CB=



000
FTUS43 KILX 282330
TAFPIA
TAF
KPIA 282330Z 2900/2924 15012KT P6SM BKN250
     FM290200 15008KT P6SM BKN080
     FM290800 18008KT P6SM VCTS SCT035 BKN050CB
     FM291500 19010KT P6SM VCSH BKN035
     FM292100 22012KT P6SM VCTS BKN045CB=



000
FTUS43 KILX 282316 AAD
TAFSPI
TAF AMD
KSPI 282316Z 2823/2918 15008KT P6SM VCTS BKN050CB
      TEMPO 2823/2902 21025G35KT 1SM +TSRA BKN035CB
     FM290200 16008KT P6SM BKN050
     FM290800 18008KT P6SM VCSH SCT035 BKN050
     FM291500 19010KT P6SM VCSH BKN035=



000
FTUS43 KILX 282316 AAD
TAFSPI
TAF AMD
KSPI 282316Z 2823/2918 15008KT P6SM VCTS BKN050CB
      TEMPO 2823/2902 21025G35KT 1SM +TSRA BKN035CB
     FM290200 16008KT P6SM BKN050
     FM290800 18008KT P6SM VCSH SCT035 BKN050
     FM291500 19010KT P6SM VCSH BKN035=



000
FTUS43 KILX 282308 AAC
TAFSPI
TAF AMD
KSPI 282308Z 2823/2918 15008KT P6SM VCTS BKN050CB
      TEMPO 2823/2902 21020G30KT 4SM TSRA BKN035CB
     FM290200 16008KT P6SM BKN050
     FM290800 18008KT P6SM VCSH SCT035 BKN050
     FM291500 19010KT P6SM VCSH BKN035=



000
FTUS43 KILX 282308 AAC
TAFSPI
TAF AMD
KSPI 282308Z 2823/2918 15008KT P6SM VCTS BKN050CB
      TEMPO 2823/2902 21020G30KT 4SM TSRA BKN035CB
     FM290200 16008KT P6SM BKN050
     FM290800 18008KT P6SM VCSH SCT035 BKN050
     FM291500 19010KT P6SM VCSH BKN035=



000
FTUS43 KILX 282234 CCA
TAFSPI
TAF COR
KSPI 282234Z 2823/2918 15008KT P6SM VCTS BKN050CB
      TEMPO 2823/2902 6SM -TSRA BKN035CB
     FM290200 16008KT P6SM BKN050
     FM290800 18008KT P6SM VCSH SCT035 BKN050
     FM291500 19010KT P6SM VCSH BKN035=



000
FTUS43 KILX 282233 AAB
TAFSPI
TAF AMD
KSPI 282233Z 2823/2918 15008KT P6SM VCTS BKN050CB
     FM290200 16008KT P6SM BKN050
     FM290800 18008KT P6SM VCSH SCT035 BKN050
     FM291500 19010KT P6SM VCSH BKN035=



000
FTUS43 KILX 282020 AAA
TAFCMI
TAF AMD
KCMI 282020Z 2820/2918 15012KT P6SM SCT050 BKN250
     FM290600 17008KT P6SM BKN080
     FM291200 18008KT P6SM VCSH SCT035 BKN050
     FM291500 19012KT P6SM VCSH BKN035=



000
FTUS43 KILX 282018 AAA
TAFDEC
TAF AMD
KDEC 282018Z 2820/2918 15012KT P6SM SCT050 BKN250
     FM290600 17008KT P6SM BKN080
     FM291000 18008KT P6SM VCSH SCT035 BKN050
     FM291500 19012KT P6SM VCSH BKN035=



000
FTUS43 KILX 282017 AAA
TAFSPI
TAF AMD
KSPI 282017Z 2820/2918 15010KT P6SM SCT050 BKN250
     FM282200 15008KT P6SM VCSH BKN050
     FM290200 16008KT P6SM BKN050
     FM290800 18008KT P6SM VCSH SCT035 BKN050
     FM291500 19010KT P6SM VCSH BKN035=



000
FTUS43 KILX 282017 AAA
TAFSPI
TAF AMD
KSPI 282017Z 2820/2918 15010KT P6SM SCT050 BKN250
     FM282200 15008KT P6SM VCSH BKN050
     FM290200 16008KT P6SM BKN050
     FM290800 18008KT P6SM VCSH SCT035 BKN050
     FM291500 19010KT P6SM VCSH BKN035=



000
FTUS43 KILX 282015 AAA
TAFBMI
TAF AMD
KBMI 282015Z 2820/2918 15012KT P6SM BKN250
     FM290600 17008KT P6SM BKN080
     FM291000 18008KT P6SM VCSH SCT035 BKN050
     FM291500 19012KT P6SM VCSH BKN035=



000
FTUS43 KILX 282013 AAA
TAFPIA
TAF AMD
KPIA 282013Z 2820/2918 15012KT P6SM BKN250
     FM290200 15008KT P6SM BKN080
     FM290800 18008KT P6SM VCSH SCT035 BKN050
     FM291500 19010KT P6SM VCSH BKN035=



000
FTUS43 KILX 282013 AAA
TAFPIA
TAF AMD
KPIA 282013Z 2820/2918 15012KT P6SM BKN250
     FM290200 15008KT P6SM BKN080
     FM290800 18008KT P6SM VCSH SCT035 BKN050
     FM291500 19010KT P6SM VCSH BKN035=



000
FTUS43 KILX 281748
TAFCMI
TAF
KCMI 281748Z 2818/2918 12012KT P6SM SCT035 BKN250
     FM290600 17008KT P6SM BKN250
     FM291500 19010KT P6SM BKN035=



000
FTUS43 KILX 281748
TAFDEC
TAF
KDEC 281748Z 2818/2918 12012KT P6SM SCT035 BKN250
     FM290600 17008KT P6SM BKN250
     FM291500 19010KT P6SM BKN035=



000
FTUS43 KILX 281748
TAFPIA
TAF
KPIA 281748Z 2818/2918 12012KT P6SM BKN250
     FM290200 14008KT P6SM VCSH SCT035 BKN050
     FM290600 17008KT P6SM BKN250
     FM291500 19010KT P6SM BKN035=



000
FTUS43 KILX 281748
TAFBMI
TAF
KBMI 281748Z 2818/2918 12012KT P6SM SCT035 BKN250
     FM290600 17008KT P6SM BKN250
     FM291500 19012KT P6SM BKN035=



000
FTUS43 KILX 281748
TAFSPI
TAF
KSPI 281748Z 2818/2918 12012KT P6SM SCT035 BKN250
     FM282300 14008KT P6SM VCSH SCT035 BKN050
     FM290600 17008KT P6SM BKN250
     FM291500 19010KT P6SM BKN035=



000
FTUS43 KILX 281137
TAFSPI
TAF
KSPI 281137Z 2812/2912 VRB03KT P6SM SKC
     FM281400 12010KT P6SM SCT250
     FM290000 13006KT P6SM SCT050 BKN100
     FM290800 17007KT P6SM BKN050=



000
FTUS43 KILX 281137
TAFDEC
TAF
KDEC 281137Z 2812/2912 VRB04KT P6SM SKC
     FM281400 12010KT P6SM SCT250
     FM290000 13006KT P6SM SCT050 BKN100
     FM290900 17007KT P6SM BKN050=



000
FTUS43 KILX 281137
TAFCMI
TAF
KCMI 281137Z 2812/2912 VRB04KT P6SM SKC
     FM281400 12011KT P6SM SCT250
     FM290100 13006KT P6SM SCT050 BKN100
     FM291000 17007KT P6SM BKN050=



000
FTUS43 KILX 281137
TAFBMI
TAF
KBMI 281137Z 2812/2912 VRB04KT P6SM SKC
     FM281400 12010KT P6SM SCT250
     FM290200 13007KT P6SM SCT050 BKN100
     FM290900 17008KT P6SM BKN050=



000
FTUS43 KILX 281137
TAFPIA
TAF
KPIA 281137Z 2812/2912 VRB03KT P6SM SKC
     FM281400 13012KT P6SM SCT250
     FM290300 14006KT P6SM SCT050 BKN100
     FM290800 17007KT P6SM BKN050=



000
FTUS43 KILX 281137
TAFBMI
TAF
KBMI 281137Z 2812/2912 VRB04KT P6SM SKC
     FM281400 12010KT P6SM SCT250
     FM290200 13007KT P6SM SCT050 BKN100
     FM290900 17008KT P6SM BKN050=



000
FTUS43 KILX 281137
TAFDEC
TAF
KDEC 281137Z 2812/2912 VRB04KT P6SM SKC
     FM281400 12010KT P6SM SCT250
     FM290000 13006KT P6SM SCT050 BKN100
     FM290900 17007KT P6SM BKN050=



000
FTUS43 KILX 281137
TAFSPI
TAF
KSPI 281137Z 2812/2912 VRB03KT P6SM SKC
     FM281400 12010KT P6SM SCT250
     FM290000 13006KT P6SM SCT050 BKN100
     FM290800 17007KT P6SM BKN050=



000
FTUS43 KILX 281137
TAFCMI
TAF
KCMI 281137Z 2812/2912 VRB04KT P6SM SKC
     FM281400 12011KT P6SM SCT250
     FM290100 13006KT P6SM SCT050 BKN100
     FM291000 17007KT P6SM BKN050=



000
FTUS43 KILX 281137
TAFPIA
TAF
KPIA 281137Z 2812/2912 VRB03KT P6SM SKC
     FM281400 13012KT P6SM SCT250
     FM290300 14006KT P6SM SCT050 BKN100
     FM290800 17007KT P6SM BKN050=



000
FTUS43 KILX 280538
TAFPIA
TAF
KPIA 280538Z 2806/2906 VRB03KT P6SM SKC
     FM281400 14008KT P6SM SKC
     FM290100 16006KT P6SM SCT120 BKN250=



000
FTUS43 KILX 280538
TAFDEC
TAF
KDEC 280538Z 2806/2906 VRB03KT P6SM SKC
     FM281400 13008KT P6SM SKC
     FM290100 15006KT P6SM BKN250=



000
FTUS43 KILX 280538
TAFSPI
TAF
KSPI 280538Z 2806/2906 VRB03KT P6SM SKC
     FM281400 13008KT P6SM SKC
     FM290100 15006KT P6SM BKN250=



000
FTUS43 KILX 280538
TAFBMI
TAF
KBMI 280538Z 2806/2906 VRB03KT P6SM SKC
     FM281400 14010KT P6SM SKC
     FM290100 15007KT P6SM BKN250=



000
FTUS43 KILX 280538
TAFCMI
TAF
KCMI 280538Z 2806/2906 VRB04KT P6SM SKC
     FM281400 12009KT P6SM SKC
     FM290100 13006KT P6SM BKN250=



000
FTUS43 KILX 272336
TAFCMI
TAF
KCMI 272336Z 2800/2824 30010KT P6SM SKC
     FM280200 VRB03KT P6SM SKC
     FM281400 14009KT P6SM SKC=



000
FTUS43 KILX 272336
TAFBMI
TAF
KBMI 272336Z 2800/2824 33007KT P6SM SKC
     FM280200 VRB03KT P6SM SKC
     FM281400 14009KT P6SM SKC=



000
FTUS43 KILX 272336
TAFPIA
TAF
KPIA 272336Z 2800/2824 VRB03KT P6SM SKC
     FM281400 14008KT P6SM SKC=



000
FTUS43 KILX 272336
TAFSPI
TAF
KSPI 272336Z 2800/2824 34006KT P6SM SKC
     FM280100 VRB03KT P6SM SKC
     FM281400 14009KT P6SM SKC=



000
FTUS43 KILX 272336
TAFDEC
TAF
KDEC 272336Z 2800/2824 33007KT P6SM SKC
     FM280200 VRB03KT P6SM SKC
     FM281400 14009KT P6SM SKC=



000
FTUS43 KILX 272336
TAFBMI
TAF
KBMI 272336Z 2800/2824 33007KT P6SM SKC
     FM280200 VRB03KT P6SM SKC
     FM281400 14009KT P6SM SKC=



000
FTUS43 KILX 272336
TAFPIA
TAF
KPIA 272336Z 2800/2824 VRB03KT P6SM SKC
     FM281400 14008KT P6SM SKC=



000
FTUS43 KILX 272336
TAFSPI
TAF
KSPI 272336Z 2800/2824 34006KT P6SM SKC
     FM280100 VRB03KT P6SM SKC
     FM281400 14009KT P6SM SKC=



000
FTUS43 KILX 272336
TAFCMI
TAF
KCMI 272336Z 2800/2824 30010KT P6SM SKC
     FM280200 VRB03KT P6SM SKC
     FM281400 14009KT P6SM SKC=



000
FTUS43 KILX 272336
TAFDEC
TAF
KDEC 272336Z 2800/2824 33007KT P6SM SKC
     FM280200 VRB03KT P6SM SKC
     FM281400 14009KT P6SM SKC=



000
FTUS43 KILX 272013 AAA
TAFBMI
TAF AMD
KBMI 272013Z 2720/2818 28012G20KT P6SM VCSH SCT035
     FM272200 30010KT P6SM SCT035
     FM280100 VRB03KT P6SM SKC
     FM281400 14009KT P6SM SKC=



000
FTUS43 KILX 271726
TAFBMI
TAF
KBMI 271726Z 2718/2818 28012G20KT P6SM VCSH BKN025
     FM272100 30010KT P6SM SCT035
     FM280100 VRB03KT P6SM SKC
     FM281400 14009KT P6SM SKC=



000
FTUS43 KILX 271726
TAFPIA
TAF
KPIA 271726Z 2718/2818 28010G18KT P6SM VCSH BKN035
     FM272000 32009KT P6SM SCT035
     FM280100 VRB03KT P6SM SKC
     FM281400 14008KT P6SM SKC=



000
FTUS43 KILX 271726
TAFDEC
TAF
KDEC 271726Z 2718/2818 28010G18KT P6SM VCSH BKN035
     FM272100 30010KT P6SM SCT035
     FM280100 VRB03KT P6SM SKC
     FM281400 14009KT P6SM SKC=



000
FTUS43 KILX 271726
TAFCMI
TAF
KCMI 271726Z 2718/2818 27012G20KT P6SM VCSH BKN035
     FM272100 29010KT P6SM SCT035
     FM280100 VRB03KT P6SM SKC
     FM281400 14009KT P6SM SKC=



000
FTUS43 KILX 271726
TAFSPI
TAF
KSPI 271726Z 2718/2818 28010G18KT P6SM VCSH BKN035
     FM272000 30010KT P6SM SCT035
     FM280100 VRB03KT P6SM SKC
     FM281400 14009KT P6SM SKC=



000
FTUS43 KILX 271131
TAFPIA
TAF
KPIA 271131Z 2712/2812 23008KT P6SM VCSH SCT035 BKN250
     FM271400 25012G17KT P6SM VCSH SCT035 BKN200
     FM271600 27012G18KT P6SM SCT050
     FM280100 VRB03KT P6SM SKC=



000
FTUS43 KILX 271131
TAFDEC
TAF
KDEC 271131Z 2712/2812 22010KT P6SM VCSH SCT035 BKN200
     FM271400 24012G18KT P6SM VCSH SCT035 BKN150
     FM271900 27013G19KT P6SM SCT040
     FM280100 VRB03KT P6SM SKC=



000
FTUS43 KILX 271131
TAFBMI
TAF
KBMI 271131Z 2712/2812 22011KT P6SM VCSH SCT035 BKN250
     FM271400 24013G18KT P6SM VCSH SCT035 BKN200
     FM271700 27015G20KT P6SM SCT040
     FM280100 VRB03KT P6SM SKC=



000
FTUS43 KILX 271131
TAFCMI
TAF
KCMI 271131Z 2712/2812 22008KT P6SM VCSH SCT035 BKN200
     FM271400 24014G20KT P6SM VCSH SCT035 BKN150
     FM272100 27015G21KT P6SM SCT040
     FM280100 VRB03KT P6SM SKC=



000
FTUS43 KILX 271131
TAFSPI
TAF
KSPI 271131Z 2712/2812 22007KT P6SM VCSH SCT035 BKN200
     FM271400 24012G17KT P6SM VCSH SCT035 BKN150
     FM271700 27012G18KT P6SM SCT040
     FM280100 VRB03KT P6SM SKC=



000
FTUS43 KILX 270809 AAA
TAFCMI
TAF AMD
KCMI 270809Z 2708/2806 20012KT P6SM VCTS SCT040CB BKN090
     FM271400 23014G20KT P6SM SCT040 BKN090
     FM271700 26015G22KT P6SM BKN050
     FM280000 28004KT P6SM SKC=



000
FTUS43 KILX 270808 AAA
TAFDEC
TAF AMD
KDEC 270808Z 2708/2806 21014KT P6SM VCTS SCT050CB BKN090
     FM271400 24012KT P6SM SCT020 BKN045
     FM271700 27013G19KT P6SM BKN050
     FM280000 31004KT P6SM SKC=



000
FTUS43 KILX 270808 AAA
TAFSPI
TAF AMD
KSPI 270808Z 2708/2806 21012KT P6SM VCTS SCT050CB BKN090
     FM271300 25010KT P6SM SCT020 BKN045
     FM271600 27012G17KT P6SM SCT050
     FM280000 31004KT P6SM SKC=



000
FTUS43 KILX 270805 AAB
TAFBMI
TAF AMD
KBMI 270805Z 2708/2806 21014KT P6SM VCTS SCT030CB BKN070
      TEMPO 2708/2709 4SM -TSRA BKN035CB
     FM271200 22013KT P6SM SCT015 BKN070
     FM271600 27015G20KT P6SM BKN045
     FM280100 29005KT P6SM SKC=



000
FTUS43 KILX 270731 AAA
TAFBMI
TAF AMD
KBMI 270731Z 2708/2806 21014KT P6SM VCTS SCT030CB BKN070
     FM271200 22013KT P6SM SCT015 BKN070
     FM271600 27015G20KT P6SM BKN045
     FM280100 29005KT P6SM SKC=



000
FTUS43 KILX 270731 AAA
TAFBMI
TAF AMD
KBMI 270731Z 2708/2806 21014KT P6SM VCTS SCT030CB BKN070
     FM271200 22013KT P6SM SCT015 BKN070
     FM271600 27015G20KT P6SM BKN045
     FM280100 29005KT P6SM SKC=



000
FTUS43 KILX 270531
TAFBMI
TAF
KBMI 270531Z 2706/2806 21014KT P6SM VCSH SCT030 BKN070
     FM271200 22013KT P6SM SCT015 BKN070
     FM271600 27015G20KT P6SM BKN045
     FM280100 29005KT P6SM SKC=



000
FTUS43 KILX 270531
TAFSPI
TAF
KSPI 270531Z 2706/2806 21012KT P6SM VCSH SCT050 BKN090
     FM271300 25010KT P6SM SCT020 BKN045
     FM271600 27012G17KT P6SM SCT050
     FM280000 31004KT P6SM SKC=



000
FTUS43 KILX 270531
TAFPIA
TAF
KPIA 270531Z 2706/2806 21012KT P6SM VCSH SCT040 BKN080
     FM271100 23010KT P6SM SCT020 BKN090
     FM271600 26012G16KT P6SM SCT050
     FM280100 29004KT P6SM SKC=



000
FTUS43 KILX 270531
TAFDEC
TAF
KDEC 270531Z 2706/2806 21014KT P6SM VCSH SCT050 BKN090
     FM271400 24012KT P6SM SCT020 BKN045
     FM271700 27013G19KT P6SM BKN050
     FM280000 31004KT P6SM SKC=



000
FTUS43 KILX 270531
TAFCMI
TAF
KCMI 270531Z 2706/2806 20012KT P6SM SCT090
     FM271400 23014G20KT P6SM VCSH SCT040 BKN090
     FM271700 26015G22KT P6SM BKN050
     FM280000 28004KT P6SM SKC=



000
FTUS43 KILX 270223 AAA
TAFPIA
TAF AMD
KPIA 270223Z 2702/2724 21012KT P6SM VCTS SCT040CB BKN090
     FM270500 22008KT P6SM SCT090 BKN250
     FM271400 26010KT P6SM SCT025 BKN090
     FM272000 29009KT P6SM SCT050=



000
FTUS43 KILX 270201 AAA
TAFBMI
TAF AMD
KBMI 270201Z 2702/2724 21014KT P6SM SCT090
     FM270600 23012KT P6SM SCT030 BKN090
     FM271400 25015KT P6SM SCT025 BKN150
     FM271900 28013KT P6SM BKN040=



000
FTUS43 KILX 270201 AAA
TAFBMI
TAF AMD
KBMI 270201Z 2702/2724 21014KT P6SM SCT090
     FM270600 23012KT P6SM SCT030 BKN090
     FM271400 25015KT P6SM SCT025 BKN150
     FM271900 28013KT P6SM BKN040=



000
FTUS43 KILX 270200 AAA
TAFCMI
TAF AMD
KCMI 270200Z 2702/2724 20012KT P6SM SCT090
     FM271000 21008KT 6SM BR SCT015 OVC035
     FM271400 24012KT P6SM BKN050
     FM272200 26014KT P6SM SCT050=



000
FTUS43 KILX 262342
TAFPIA
TAF
KPIA 262342Z 2700/2724 22012KT P6SM SCT035 BKN090
     FM270500 22008KT P6SM SCT090 BKN250
     FM271400 26010KT P6SM SCT025 BKN090
     FM272000 29009KT P6SM SCT050=



000
FTUS43 KILX 262342
TAFBMI
TAF
KBMI 262342Z 2700/2724 23014KT P6SM SCT090
     FM270600 23012KT P6SM SCT030 BKN090
     FM271400 25015KT P6SM SCT025 BKN150
     FM271900 28013KT P6SM BKN040=



000
FTUS43 KILX 262342
TAFCMI
TAF
KCMI 262342Z 2700/2724 23015KT P6SM SCT040 BKN090
     FM270300 20012KT P6SM SCT090
     FM271000 21008KT 6SM BR SCT015 OVC035
     FM271400 24012KT P6SM BKN050
     FM272200 26014KT P6SM SCT050=



000
FTUS43 KILX 262342
TAFSPI
TAF
KSPI 262342Z 2700/2724 22013KT P6SM BKN050
     FM270300 22010KT P6SM SCT050 BKN100
     FM271400 25009KT P6SM BKN045
     FM272000 29010KT P6SM SCT050=



000
FTUS43 KILX 262342
TAFDEC
TAF
KDEC 262342Z 2700/2724 22014KT P6SM BKN050
     FM270400 21012KT P6SM SCT050 BKN100
     FM271400 24012KT P6SM BKN045
     FM272100 29010KT P6SM SCT050 BKN100=



000
FTUS43 KILX 262214 AAB
TAFCMI
TAF AMD
KCMI 262214Z 2622/2718 24018G27KT P6SM VCSH SCT025 BKN035
     FM262300 23012KT P6SM BKN040
     FM270300 22012KT P6SM VCSH SCT020 OVC040
     FM270700 23012KT P6SM SCT015 OVC035=



000
FTUS43 KILX 262205 AAB
TAFPIA
TAF AMD
KPIA 262205Z 2622/2718 24018G25KT P6SM VCSH SCT025 BKN045
     FM270000 23012KT P6SM BKN035
     FM270200 21008KT P6SM VCSH SCT020 OVC040
     FM270500 24006KT P6SM SCT015 OVC035=



000
FTUS43 KILX 262203 AAB
TAFBMI
TAF AMD
KBMI 262203Z 2622/2718 22017G25KT P6SM SCT020 BKN035
      TEMPO 2622/2623 BKN020
     FM270000 21014KT P6SM BKN035
     FM270300 21012KT P6SM VCSH SCT020 OVC040
     FM270600 24010KT P6SM SCT015 OVC035=



000
FTUS43 KILX 262043 AAA
TAFCMI
TAF AMD
KCMI 262043Z 2621/2718 21018G27KT P6SM VCSH SCT025 BKN035
      TEMPO 2621/2622 3SM SHRA BKN025
     FM262300 21012KT P6SM BKN040
     FM270300 22012KT P6SM VCSH SCT020 OVC040
     FM270700 23012KT P6SM SCT015 OVC035=



000
FTUS43 KILX 261953 AAA
TAFBMI
TAF AMD
KBMI 261953Z 2620/2718 23014G22KT P6SM VCSH BKN025
     FM262100 22017G25KT P6SM SCT025 BKN035
     FM270000 21014KT P6SM BKN035
     FM270300 21012KT P6SM VCSH SCT020 OVC040
     FM270600 24010KT P6SM SCT015 OVC035=



000
FTUS43 KILX 261833 AAA
TAFSPI
TAF AMD
KSPI 261833Z 2619/2718 22014G24KT P6SM VCTS SCT025CB BKN035
      TEMPO 2619/2620 5SM -TSRA BKN025CB
     FM262200 21012G18KT P6SM BKN040
     FM270200 21009KT P6SM VCSH SCT020 OVC040
     FM270700 24009KT P6SM SCT015 OVC035=



000
FTUS43 KILX 261832 AAA
TAFPIA
TAF AMD
KPIA 261832Z 2619/2718 21018G25KT P6SM VCTS SCT025CB BKN040
      TEMPO 2619/2620 5SM -TSRA BKN025CB
     FM262300 21010KT P6SM BKN035
     FM270200 21008KT P6SM VCSH SCT020 OVC040
     FM270500 24006KT P6SM SCT015 OVC035=



000
FTUS43 KILX 261728
TAFPIA
TAF
KPIA 261728Z 2618/2718 21013KT P6SM SCT015 BKN040
     FM262000 21015G25KT P6SM VCTS BKN025CB
     FM262300 21010KT P6SM BKN035
     FM270200 21008KT P6SM VCSH SCT020 OVC040
     FM270500 24006KT P6SM SCT015 OVC035=



000
FTUS43 KILX 261728
TAFBMI
TAF
KBMI 261728Z 2618/2718 19014KT P6SM SCT025 BKN045
     FM262100 22017G25KT P6SM VCTS BKN025CB
     FM270000 21014KT P6SM BKN035
     FM270300 21012KT P6SM VCSH SCT020 OVC040
     FM270600 24010KT P6SM SCT015 OVC035=



000
FTUS43 KILX 261728
TAFDEC
TAF
KDEC 261728Z 2618/2718 21014G24KT P6SM SCT025 BKN035
     FM262100 22016G26KT P6SM VCTS OVC035CB
     FM262300 21012KT P6SM BKN040
     FM270200 22012KT P6SM VCSH SCT020 OVC040
     FM270700 23010KT P6SM SCT015 OVC035=



000
FTUS43 KILX 261728
TAFCMI
TAF
KCMI 261728Z 2618/2718 21015G25KT P6SM SCT025 BKN035
     FM262200 21017G25KT P6SM VCTS OVC035CB
     FM270000 21012KT P6SM BKN040
     FM270300 22012KT P6SM VCSH SCT020 OVC040
     FM270700 23012KT P6SM SCT015 OVC035=



000
FTUS43 KILX 261728
TAFSPI
TAF
KSPI 261728Z 2618/2718 22014G24KT P6SM SCT025 BKN035
     FM262000 22016G26KT P6SM VCTS OVC035CB
     FM262200 21012KT P6SM BKN040
     FM270200 21009KT P6SM VCSH SCT020 OVC040
     FM270700 24009KT P6SM SCT015 OVC035=



000
FTUS43 KILX 261641 AAB
TAFBMI
TAF AMD
KBMI 261641Z 2617/2712 19013KT P6SM SCT025 BKN050
     FM262000 19015G25KT P6SM VCTS OVC025CB
     FM262300 21010KT P6SM BKN035=



000
FTUS43 KILX 261641 AAB
TAFBMI
TAF AMD
KBMI 261641Z 2617/2712 19013KT P6SM SCT025 BKN050
     FM262000 19015G25KT P6SM VCTS OVC025CB
     FM262300 21010KT P6SM BKN035=



000
FTUS43 KILX 261600 AAE
TAFPIA
TAF AMD
KPIA 261600Z 2616/2712 19013KT P6SM SCT015 BKN090
     FM261800 19015G25KT P6SM VCTS OVC025CB
     FM262300 21010KT P6SM BKN035=



000
FTUS43 KILX 261553 AAB
TAFDEC
TAF AMD
KDEC 261553Z 2616/2712 21020G30KT 3SM SHRA BR OVC020
      TEMPO 2616/2617 3/4SM +SHRA BR BKN012
     FM261800 21015G25KT P6SM SCT040 BKN080
     FM262000 22018G26KT P6SM VCTS OVC025CB
     FM270000 22012KT P6SM BKN035=



000
FTUS43 KILX 261515 AAA
TAFCMI
TAF AMD
KCMI 261515Z 2615/2712 15020G30KT P6SM OVC015
     FM261700 18020G30KT P6SM -SHRA SCT015 OVC025
      TEMPO 2617/2619 4SM -SHRA
     FM262000 20020G30KT P6SM VCTS OVC025CB
     FM270100 20010KT P6SM BKN035=



000
FTUS43 KILX 261505 AAA
TAFBMI
TAF AMD
KBMI 261505Z 2615/2712 17015G25KT 6SM -SHRA OVC015
     FM261530 20020G30KT 3SM SHRA BR OVC020
      TEMPO 2616/2617 3/4SM +SHRA BR BKN012
     FM261800 22018G26KT P6SM VCTS OVC025CB
     FM270000 22012KT P6SM BKN035=



000
FTUS43 KILX 261505 AAA
TAFBMI
TAF AMD
KBMI 261505Z 2615/2712 17015G25KT 6SM -SHRA OVC015
     FM261530 20020G30KT 3SM SHRA BR OVC020
      TEMPO 2616/2617 3/4SM +SHRA BR BKN012
     FM261800 22018G26KT P6SM VCTS OVC025CB
     FM270000 22012KT P6SM BKN035=



000
FTUS43 KILX 261459 AAD
TAFPIA
TAF AMD
KPIA 261459Z 2615/2712 20015G25KT 3SM -SHRA OVC025
      TEMPO 2615/2616 1/2SM +SHRA FG OVC009
     FM261600 20016KT P6SM -SHRA OVC010
     FM261700 20013KT P6SM SCT012 BKN070
     FM261900 19015G25KT P6SM VCTS OVC025CB
     FM262300 21010KT P6SM BKN035=



000
FTUS43 KILX 261459 AAD
TAFPIA
TAF AMD
KPIA 261459Z 2615/2712 20015G25KT 3SM -SHRA OVC025
      TEMPO 2615/2616 1/2SM +SHRA FG OVC009
     FM261600 20016KT P6SM -SHRA OVC010
     FM261700 20013KT P6SM SCT012 BKN070
     FM261900 19015G25KT P6SM VCTS OVC025CB
     FM262300 21010KT P6SM BKN035=



000
FTUS43 KILX 261430 AAC
TAFPIA
TAF AMD
KPIA 261430Z 2615/2712 17015G23KT 3SM -SHRA OVC012
      TEMPO 2615/2616 1SM SHRA OVC009
     FM261600 20016KT P6SM -SHRA OVC010
     FM261700 20013KT P6SM SCT012 BKN070
     FM261900 19015G25KT P6SM VCTS OVC025CB
     FM262300 21010KT P6SM BKN035=



000
FTUS43 KILX 261430 AAC
TAFPIA
TAF AMD
KPIA 261430Z 2615/2712 17015G23KT 3SM -SHRA OVC012
      TEMPO 2615/2616 1SM SHRA OVC009
     FM261600 20016KT P6SM -SHRA OVC010
     FM261700 20013KT P6SM SCT012 BKN070
     FM261900 19015G25KT P6SM VCTS OVC025CB
     FM262300 21010KT P6SM BKN035=



000
FTUS43 KILX 261415 AAB
TAFPIA
TAF AMD
KPIA 261415Z 2614/2712 14015G23KT 6SM -SHRA OVC012
     FM261500 20020G30KT 4SM SHRA OVC015
     FM261600 20016KT P6SM -SHRA OVC010
     FM261700 20013KT P6SM SCT012 BKN070
     FM261900 19015G25KT P6SM VCTS OVC025CB
     FM262300 21010KT P6SM BKN035=



000
FTUS43 KILX 261405 AAC
TAFSPI
TAF AMD
KSPI 261405Z 2614/2712 16020G28KT 4SM SHRA OVC012
     FM261500 21012KT P6SM -SHRA SCT010 BKN060
     FM261700 22016G25KT P6SM VCTS OVC025CB
     FM262300 21010KT P6SM BKN035=



000
FTUS43 KILX 261405 AAC
TAFSPI
TAF AMD
KSPI 261405Z 2614/2712 16020G28KT 4SM SHRA OVC012
     FM261500 21012KT P6SM -SHRA SCT010 BKN060
     FM261700 22016G25KT P6SM VCTS OVC025CB
     FM262300 21010KT P6SM BKN035=



000
FTUS43 KILX 261217 AAB
TAFSPI
TAF AMD
KSPI 261217Z 2612/2712 16012G20KT P6SM -SHRA OVC012
     FM261700 22016G25KT P6SM VCTS OVC025CB
     FM262300 21010KT P6SM BKN035=



000
FTUS43 KILX 261217 AAB
TAFSPI
TAF AMD
KSPI 261217Z 2612/2712 16012G20KT P6SM -SHRA OVC012
     FM261700 22016G25KT P6SM VCTS OVC025CB
     FM262300 21010KT P6SM BKN035=



000
FTUS43 KILX 261214 AAA
TAFSPI
TAF AMD
KSPI 261214Z 2612/2712 16012KT P6SM -SHRA OVC008
     FM261700 22016G25KT P6SM VCTS OVC025CB
     FM262300 21010KT P6SM BKN035=



000
FTUS43 KILX 261214 AAA
TAFSPI
TAF AMD
KSPI 261214Z 2612/2712 16012KT P6SM -SHRA OVC008
     FM261700 22016G25KT P6SM VCTS OVC025CB
     FM262300 21010KT P6SM BKN035=



000
FTUS43 KILX 261213 AAA
TAFDEC
TAF AMD
KDEC 261213Z 2612/2712 16010KT P6SM OVC008
      TEMPO 2612/2613 2SM -SHRA BR BKN005
     FM261300 18015G20KT 4SM -SHRA OVC010
     FM261800 22018G26KT P6SM VCTS OVC025CB
     FM270000 22010KT P6SM BKN035=



000
FTUS43 KILX 261213 AAA
TAFDEC
TAF AMD
KDEC 261213Z 2612/2712 16010KT P6SM OVC008
      TEMPO 2612/2613 2SM -SHRA BR BKN005
     FM261300 18015G20KT 4SM -SHRA OVC010
     FM261800 22018G26KT P6SM VCTS OVC025CB
     FM270000 22010KT P6SM BKN035=



000
FTUS43 KILX 261211 AAA
TAFPIA
TAF AMD
KPIA 261211Z 2612/2712 15008KT P6SM OVC008
     FM261300 16012G20KT 6SM -SHRA OVC012
     FM261700 19015G25KT P6SM VCTS OVC025CB
     FM262300 21010KT P6SM BKN035=



000
FTUS43 KILX 261211 AAA
TAFPIA
TAF AMD
KPIA 261211Z 2612/2712 15008KT P6SM OVC008
     FM261300 16012G20KT 6SM -SHRA OVC012
     FM261700 19015G25KT P6SM VCTS OVC025CB
     FM262300 21010KT P6SM BKN035=



000
FTUS43 KILX 261138
TAFBMI
TAF
KBMI 261138Z 2612/2712 16012KT P6SM OVC008
      TEMPO 2612/2614 2SM -SHRA BR BKN005
     FM261400 18014G20KT 6SM -SHRA OVC008
     FM261800 22018G26KT P6SM VCTS OVC025CB
     FM270000 22012KT P6SM BKN035=



000
FTUS43 KILX 261138
TAFSPI
TAF
KSPI 261138Z 2612/2712 16010KT P6SM -SHRA OVC008
     FM261700 22016G25KT P6SM VCTS OVC025CB
     FM262300 21010KT P6SM BKN035=



000
FTUS43 KILX 261138
TAFDEC
TAF
KDEC 261138Z 2612/2712 16010KT P6SM OVC008
      TEMPO 2612/2613 2SM -SHRA BR BKN006
     FM261300 18015G20KT 4SM -SHRA OVC010
     FM261800 22018G26KT P6SM VCTS OVC025CB
     FM270000 22010KT P6SM BKN035=



000
FTUS43 KILX 261138
TAFPIA
TAF
KPIA 261138Z 2612/2712 15008KT P6SM OVC010
     FM261300 16012G20KT 6SM -SHRA OVC012
     FM261700 19015G25KT P6SM VCTS OVC025CB
     FM262300 21010KT P6SM BKN035=



000
FTUS43 KILX 261138
TAFCMI
TAF
KCMI 261138Z 2612/2712 16011KT P6SM BKN008
      TEMPO 2612/2614 2SM -SHRA BR BKN005
     FM261400 19015G20KT 6SM -SHRA OVC008
     FM261800 20020G30KT P6SM VCTS OVC025CB
     FM270100 20010KT P6SM BKN035=



000
FTUS43 KILX 261138
TAFBMI
TAF
KBMI 261138Z 2612/2712 16012KT P6SM OVC008
      TEMPO 2612/2614 2SM -SHRA BR BKN005
     FM261400 18014G20KT 6SM -SHRA OVC008
     FM261800 22018G26KT P6SM VCTS OVC025CB
     FM270000 22012KT P6SM BKN035=



000
FTUS43 KILX 261138
TAFSPI
TAF
KSPI 261138Z 2612/2712 16010KT P6SM -SHRA OVC008
     FM261700 22016G25KT P6SM VCTS OVC025CB
     FM262300 21010KT P6SM BKN035=



000
FTUS43 KILX 261138
TAFDEC
TAF
KDEC 261138Z 2612/2712 16010KT P6SM OVC008
      TEMPO 2612/2613 2SM -SHRA BR BKN006
     FM261300 18015G20KT 4SM -SHRA OVC010
     FM261800 22018G26KT P6SM VCTS OVC025CB
     FM270000 22010KT P6SM BKN035=



000
FTUS43 KILX 261138
TAFCMI
TAF
KCMI 261138Z 2612/2712 16011KT P6SM BKN008
      TEMPO 2612/2614 2SM -SHRA BR BKN005
     FM261400 19015G20KT 6SM -SHRA OVC008
     FM261800 20020G30KT P6SM VCTS OVC025CB
     FM270100 20010KT P6SM BKN035=



000
FTUS43 KILX 261138
TAFPIA
TAF
KPIA 261138Z 2612/2712 15008KT P6SM OVC010
     FM261300 16012G20KT 6SM -SHRA OVC012
     FM261700 19015G25KT P6SM VCTS OVC025CB
     FM262300 21010KT P6SM BKN035=



000
FTUS43 KILX 261134
TAFPIA
TAF
KPIA 261134Z 2612/2712 18012KT P6SM OVC010
     FM261300 18012G20KT 6SM -SHRA OVC012
     FM261700 19015G25KT P6SM VCTS OVC025CB
     FM262300 21010KT P6SM BKN035=



000
FTUS43 KILX 261134
TAFSPI
TAF
KSPI 261134Z 2612/2712 17010KT P6SM -SHRA OVC008
     FM261700 22016G25KT P6SM VCTS OVC025CB
     FM262300 21010KT P6SM BKN035=



000
FTUS43 KILX 261134
TAFCMI
TAF
KCMI 261134Z 2612/2712 17011KT P6SM BKN008
      TEMPO 2612/2614 3SM -SHRA BR BKN005
     FM261400 19015G20KT 6SM -SHRA OVC008
     FM261800 20020G30KT P6SM VCTS OVC025CB
     FM270100 20010KT P6SM BKN035=



000
FTUS43 KILX 261134
TAFBMI
TAF
KBMI 261134Z 2612/2712 18012KT P6SM OVC008
      TEMPO 2612/2614 2SM -SHRA BR BKN005
     FM261400 18014G20KT 6SM -SHRA OVC008
     FM261800 22018G26KT P6SM VCTS OVC025CB
     FM270000 22012KT P6SM BKN035=



000
FTUS43 KILX 261134
TAFDEC
TAF
KDEC 261134Z 2612/2712 17010KT P6SM OVC008
      TEMPO 2612/2613 2SM -SHRA BR BKN006
     FM261300 18015G20KT 4SM -SHRA OVC010
     FM261800 22018G26KT P6SM VCTS OVC025CB
     FM270000 22010KT P6SM BKN035=



000
FTUS43 KILX 261034 AAC
TAFDEC
TAF AMD
KDEC 261034Z 2611/2706 17011KT 5SM BR OVC008
     FM261300 18015G20KT 6SM -SHRA VCTS OVC010CB
     FM261800 22018G26KT P6SM VCTS OVC025CB
     FM270000 22010KT P6SM SCT050=



000
FTUS43 KILX 261034 AAC
TAFDEC
TAF AMD
KDEC 261034Z 2611/2706 17011KT 5SM BR OVC008
     FM261300 18015G20KT 6SM -SHRA VCTS OVC010CB
     FM261800 22018G26KT P6SM VCTS OVC025CB
     FM270000 22010KT P6SM SCT050=



000
FTUS43 KILX 261033 AAC
TAFSPI
TAF AMD
KSPI 261033Z 2611/2706 16011KT P6SM BKN008
     FM261200 18014G20KT 6SM -SHRA VCTS OVC012CB
     FM261700 22016G25KT P6SM VCTS OVC025CB
     FM270000 21010KT P6SM SCT050=



000
FTUS43 KILX 261033 AAC
TAFSPI
TAF AMD
KSPI 261033Z 2611/2706 16011KT P6SM BKN008
     FM261200 18014G20KT 6SM -SHRA VCTS OVC012CB
     FM261700 22016G25KT P6SM VCTS OVC025CB
     FM270000 21010KT P6SM SCT050=



000
FTUS43 KILX 260848 AAB
TAFDEC
TAF AMD
KDEC 260848Z 2609/2706 17011KT P6SM BKN010
     FM261300 18015G20KT 6SM -SHRA VCTS OVC010CB
     FM261800 22018G26KT P6SM VCTS OVC025CB
     FM270000 22010KT P6SM SCT050=



000
FTUS43 KILX 260848 AAB
TAFBMI
TAF AMD
KBMI 260848Z 2609/2706 18012KT P6SM BKN008
     FM261400 18014G20KT 6SM -SHRA VCTS OVC008CB
     FM261800 22018G26KT P6SM VCTS OVC025CB
     FM270000 22012KT P6SM SCT050=



000
FTUS43 KILX 260848 AAB
TAFSPI
TAF AMD
KSPI 260848Z 2609/2706 16011KT P6SM BKN012
     FM261200 18014G20KT 6SM -SHRA VCTS OVC012CB
     FM261700 22016G25KT P6SM VCTS OVC025CB
     FM270000 21010KT P6SM SCT050=



000
FTUS43 KILX 260848 AAB
TAFCMI
TAF AMD
KCMI 260848Z 2609/2706 17011KT P6SM BKN008
     FM261400 19015G20KT 6SM -SHRA VCTS OVC008CB
     FM261900 20020G30KT P6SM VCTS OVC025CB
     FM270100 20010KT P6SM SCT050=



000
FTUS43 KILX 260848 AAB
TAFPIA
TAF AMD
KPIA 260848Z 2609/2706 18012KT P6SM BKN010
     FM261300 18012G20KT 6SM -SHRA BR VCTS OVC012CB
     FM261700 22015G25KT P6SM VCTS OVC025CB
     FM270000 22008KT P6SM SCT050=



000
FTUS43 KILX 260848 AAB
TAFPIA
TAF AMD
KPIA 260848Z 2609/2706 18012KT P6SM BKN010
     FM261300 18012G20KT 6SM -SHRA BR VCTS OVC012CB
     FM261700 22015G25KT P6SM VCTS OVC025CB
     FM270000 22008KT P6SM SCT050=



000
FTUS43 KILX 260848 AAB
TAFCMI
TAF AMD
KCMI 260848Z 2609/2706 17011KT P6SM BKN008
     FM261400 19015G20KT 6SM -SHRA VCTS OVC008CB
     FM261900 20020G30KT P6SM VCTS OVC025CB
     FM270100 20010KT P6SM SCT050=



000
FTUS43 KILX 260848 AAB
TAFSPI
TAF AMD
KSPI 260848Z 2609/2706 16011KT P6SM BKN012
     FM261200 18014G20KT 6SM -SHRA VCTS OVC012CB
     FM261700 22016G25KT P6SM VCTS OVC025CB
     FM270000 21010KT P6SM SCT050=



000
FTUS43 KILX 260848 AAB
TAFBMI
TAF AMD
KBMI 260848Z 2609/2706 18012KT P6SM BKN008
     FM261400 18014G20KT 6SM -SHRA VCTS OVC008CB
     FM261800 22018G26KT P6SM VCTS OVC025CB
     FM270000 22012KT P6SM SCT050=



000
FTUS43 KILX 260848 AAB
TAFDEC
TAF AMD
KDEC 260848Z 2609/2706 17011KT P6SM BKN010
     FM261300 18015G20KT 6SM -SHRA VCTS OVC010CB
     FM261800 22018G26KT P6SM VCTS OVC025CB
     FM270000 22010KT P6SM SCT050=



000
FTUS43 KILX 260841 AAA
TAFPIA
TAF AMD
KPIA 260841Z 2609/2706 18012KT P6SM SCT010 BKN250
      TEMPO 2609/2612 BKN010
     FM261300 18012G20KT 6SM -SHRA BR VCTS SCT025CB BKN035
     FM261700 22015G25KT P6SM VCTS SCT025CB OVC040
     FM270000 22008KT P6SM SCT050=



000
FTUS43 KILX 260840 AAA
TAFBMI
TAF AMD
KBMI 260840Z 2609/2706 18012KT P6SM BKN250
      TEMPO 2609/2612 BKN008
     FM261400 18014G20KT 6SM -SHRA VCTS SCT025CB BKN035
     FM261800 22018G26KT P6SM VCTS SCT025CB OVC040
     FM270000 22012KT P6SM SCT050=



000
FTUS43 KILX 260840 AAA
TAFBMI
TAF AMD
KBMI 260840Z 2609/2706 18012KT P6SM BKN250
      TEMPO 2609/2612 BKN008
     FM261400 18014G20KT 6SM -SHRA VCTS SCT025CB BKN035
     FM261800 22018G26KT P6SM VCTS SCT025CB OVC040
     FM270000 22012KT P6SM SCT050=



000
FTUS43 KILX 260750 AAA
TAFCMI
TAF AMD
KCMI 260750Z 2608/2706 17011KT P6SM BKN250
      TEMPO 2608/2610 BKN008
     FM261400 19015G20KT 6SM -SHRA VCTS SCT025CB BKN035
     FM261900 20020G30KT P6SM VCTS SCT025CB OVC040
     FM270100 20010KT P6SM SCT050=



000
FTUS43 KILX 260749 AAA
TAFSPI
TAF AMD
KSPI 260749Z 2608/2706 16011KT P6SM BKN250
      TEMPO 2608/2610 BKN012
     FM261200 18014G20KT 6SM -SHRA VCTS SCT025CB BKN035
     FM261700 22016G25KT P6SM VCTS SCT025CB OVC040
     FM270000 21010KT P6SM SCT050=



000
FTUS43 KILX 260749 AAA
TAFDEC
TAF AMD
KDEC 260749Z 2608/2706 17011KT P6SM BKN250
      TEMPO 2608/2610 BKN010
     FM261300 18015G20KT 6SM -SHRA VCTS SCT025CB BKN035
     FM261800 22018G26KT P6SM VCTS SCT025CB OVC040
     FM270000 22010KT P6SM SCT050=



    US Dept of Commerce
    National Oceanic and Atmospheric Administration
    National Weather Service
    1325 East West Highway
    Silver Spring, MD 20910
    Page Author: NWS Internet Services Team
Disclaimer
Information Quality
Credits
Glossary
Privacy Policy
Freedom of Information Act (FOIA)
About Us
Career Opportunities